createdAt,value
2018-04-15T00:00:13.709Z,7.70
2018-04-15T00:02:45.480Z,8.20
2018-04-15T00:05:13.209Z,7.70
2018-04-15T00:07:43.761Z,7.50
2018-04-15T00:10:11.840Z,7.50
2018-04-15T00:12:53.548Z,7.50
2018-04-15T00:17:51.700Z,7.30
2018-04-15T00:22:49.429Z,7.50
2018-04-15T00:28:08.383Z,7.60
2018-04-15T00:30:36.081Z,7.60
2018-04-15T00:33:18.530Z,7.30
2018-04-15T00:35:46.622Z,7.50
2018-04-15T00:38:15.405Z,7.60
2018-04-15T00:40:44.244Z,7.60
2018-04-15T00:43:12.949Z,7.50
2018-04-15T00:45:42.157Z,7.70
2018-04-15T00:48:19.509Z,7.70
2018-04-15T00:50:47.279Z,7.70
2018-04-15T00:53:16.489Z,7.80
2018-04-15T00:55:44.552Z,8.30
2018-04-15T00:58:13.384Z,7.90
2018-04-15T01:00:41.830Z,8.00
2018-04-15T01:03:11.361Z,8.00
2018-04-15T01:05:39.767Z,8.00
2018-04-15T01:08:20.959Z,8.00
2018-04-15T01:13:26.768Z,8.00
2018-04-15T01:15:55.253Z,8.00
2018-04-15T01:21:22.689Z,8.00
2018-04-15T01:23:50.429Z,8.00
2018-04-15T01:26:21.730Z,8.10
2018-04-15T01:28:50.221Z,8.20
2018-04-15T01:31:21.871Z,8.10
2018-04-15T01:33:51.271Z,8.30
2018-04-15T01:36:19.776Z,8.30
2018-04-15T01:38:48.193Z,8.40
2018-04-15T01:41:19.761Z,8.40
2018-04-15T01:43:47.864Z,8.50
2018-04-15T01:46:15.648Z,7.70
2018-04-15T01:48:44.139Z,8.50
2018-04-15T01:53:42.689Z,8.50
2018-04-15T01:56:12.503Z,8.60
2018-04-15T01:58:41.385Z,8.60
2018-04-15T02:01:11.838Z,8.60
2018-04-15T02:06:09.484Z,9.10
2018-04-15T02:08:37.221Z,8.80
2018-04-15T02:11:15.540Z,8.80
2018-04-15T02:13:44.045Z,8.80
2018-04-15T02:16:17.377Z,8.80
2018-04-15T02:18:45.597Z,8.00
2018-04-15T02:21:19.052Z,8.80
2018-04-15T02:23:46.882Z,8.80
2018-04-15T02:26:17.108Z,8.80
2018-04-15T02:28:45.583Z,8.90
2018-04-15T02:31:15.243Z,8.80
2018-04-15T02:33:44.116Z,8.80
2018-04-15T02:36:12.283Z,8.90
2018-04-15T02:38:41.142Z,8.80
2018-04-15T02:43:38.323Z,8.70
2018-04-15T02:46:08.741Z,8.90
2018-04-15T02:48:36.458Z,9.00
2018-04-15T02:51:07.182Z,9.00
2018-04-15T02:53:36.544Z,9.00
2018-04-15T02:56:05.010Z,9.00
2018-04-15T02:58:32.674Z,9.10
2018-04-15T03:01:03.601Z,9.20
2018-04-15T03:06:02.213Z,9.20
2018-04-15T03:08:30.324Z,9.20
2018-04-15T03:10:59.120Z,9.00
2018-04-15T03:13:27.796Z,9.20
2018-04-15T03:15:59.496Z,9.30
2018-04-15T03:18:27.799Z,8.90
2018-04-15T03:20:57.330Z,9.20
2018-04-15T03:25:55.084Z,9.30
2018-04-15T03:28:23.526Z,9.20
2018-04-15T03:31:02.433Z,9.10
2018-04-15T03:33:30.150Z,9.30
2018-04-15T03:36:13.432Z,9.20
2018-04-15T03:38:41.918Z,9.20
2018-04-15T03:41:29.506Z,9.20
2018-04-15T03:43:57.812Z,9.20
2018-04-15T03:46:33.019Z,9.20
2018-04-15T03:49:01.486Z,9.20
2018-04-15T03:51:29.944Z,9.20
2018-04-15T03:53:57.719Z,9.30
2018-04-15T03:56:25.483Z,9.30
2018-04-15T03:58:53.187Z,9.10
2018-04-15T04:01:20.923Z,9.10
2018-04-15T04:03:49.430Z,9.10
2018-04-15T04:06:19.985Z,9.10
2018-04-15T04:08:47.765Z,9.10
2018-04-15T04:11:31.504Z,9.10
2018-04-15T04:14:00.129Z,9.10
2018-04-15T04:16:28.254Z,9.10
2018-04-15T04:19:08.854Z,8.90
2018-04-15T04:21:55.048Z,9.10
2018-04-15T04:24:34.592Z,9.30
2018-04-15T04:27:03.146Z,9.10
2018-04-15T04:29:39.686Z,9.20
2018-04-15T04:32:09.035Z,9.20
2018-04-15T04:34:41.430Z,9.30
2018-04-15T04:37:09.926Z,9.20
2018-04-15T04:39:38.731Z,9.00
2018-04-15T04:42:06.450Z,9.00
2018-04-15T04:44:35.964Z,9.10
2018-04-15T04:47:04.892Z,9.10
2018-04-15T04:49:53.696Z,9.20
2018-04-15T04:52:22.015Z,9.10
2018-04-15T04:55:13.014Z,8.90
2018-04-15T04:57:40.797Z,9.30
2018-04-15T05:00:09.545Z,9.00
2018-04-15T05:02:37.968Z,9.10
2018-04-15T05:05:11.404Z,9.00
2018-04-15T05:07:40.562Z,9.20
2018-04-15T05:10:20.003Z,9.20
2018-04-15T05:12:47.743Z,9.10
2018-04-15T05:15:29.830Z,9.10
2018-04-15T05:17:58.249Z,9.00
2018-04-15T05:20:31.752Z,9.10
2018-04-15T05:23:00.195Z,9.10
2018-04-15T05:25:30.719Z,9.10
2018-04-15T05:27:58.473Z,8.90
2018-04-15T05:30:34.830Z,9.20
2018-04-15T05:33:03.834Z,9.20
2018-04-15T05:35:50.355Z,9.20
2018-04-15T05:38:18.210Z,9.00
2018-04-15T05:40:55.341Z,9.20
2018-04-15T05:43:23.456Z,9.30
2018-04-15T05:45:51.943Z,9.30
2018-04-15T05:48:20.426Z,9.30
2018-04-15T05:50:50.918Z,9.40
2018-04-15T05:53:19.210Z,9.10
2018-04-15T05:55:47.918Z,9.00
2018-04-15T05:58:16.359Z,9.40
2018-04-15T06:00:45.238Z,9.10
2018-04-15T06:03:13.724Z,9.40
2018-04-15T06:05:42.475Z,9.20
2018-04-15T06:08:11.078Z,9.40
2018-04-15T06:10:58.202Z,9.50
2018-04-15T06:13:26.655Z,9.30
2018-04-15T06:16:00.925Z,9.20
2018-04-15T06:18:29.792Z,9.30
2018-04-15T06:20:59.506Z,9.20
2018-04-15T06:23:27.162Z,10.00
2018-04-15T06:25:56.908Z,9.40
2018-04-15T06:28:25.034Z,9.40
2018-04-15T06:30:52.757Z,9.50
2018-04-15T06:33:21.234Z,9.40
2018-04-15T06:35:51.838Z,9.40
2018-04-15T06:38:19.935Z,9.40
2018-04-15T06:40:56.609Z,9.50
2018-04-15T06:43:25.090Z,9.50
2018-04-15T06:45:57.593Z,9.50
2018-04-15T06:48:25.325Z,9.60
2018-04-15T06:50:54.868Z,9.50
2018-04-15T06:53:23.336Z,9.50
2018-04-15T06:58:46.760Z,9.50
2018-04-15T07:01:16.069Z,9.50
2018-04-15T07:03:44.762Z,9.60
2018-04-15T07:06:13.956Z,9.60
2018-04-15T07:08:42.691Z,9.30
2018-04-15T07:11:11.590Z,9.60
2018-04-15T07:13:40.321Z,9.90
2018-04-15T07:16:07.991Z,9.50
2018-04-15T07:18:47.470Z,9.70
2018-04-15T07:21:15.194Z,9.40
2018-04-15T07:23:54.006Z,9.70
2018-04-15T07:26:23.153Z,9.70
2018-04-15T07:28:58.490Z,10.00
2018-04-15T07:31:26.592Z,9.80
2018-04-15T07:33:56.992Z,9.80
2018-04-15T07:36:25.929Z,9.80
2018-04-15T07:38:55.732Z,9.70
2018-04-15T07:41:23.535Z,9.70
2018-04-15T07:43:59.896Z,9.80
2018-04-15T07:46:28.413Z,9.90
2018-04-15T07:49:04.812Z,10.00
2018-04-15T07:51:32.558Z,10.40
2018-04-15T07:56:48.700Z,10.20
2018-04-15T07:59:16.750Z,10.30
2018-04-15T08:01:46.119Z,10.40
2018-04-15T08:04:13.828Z,10.50
2018-04-15T08:06:45.722Z,10.60
2018-04-15T08:09:13.404Z,10.70
2018-04-15T08:11:42.358Z,10.70
2018-04-15T08:14:10.455Z,11.10
2018-04-15T08:16:39.234Z,10.70
2018-04-15T08:19:07.723Z,11.10
2018-04-15T08:21:36.382Z,11.10
2018-04-15T08:24:04.103Z,11.00
2018-04-15T08:26:33.874Z,11.20
2018-04-15T08:29:02.373Z,11.30
2018-04-15T08:31:48.598Z,12.20
2018-04-15T08:34:17.088Z,11.50
2018-04-15T08:36:45.625Z,11.50
2018-04-15T08:41:49.746Z,11.80
2018-04-15T08:44:18.216Z,11.80
2018-04-15T08:46:47.973Z,11.70
2018-04-15T08:49:16.422Z,12.10
2018-04-15T08:51:44.189Z,12.40
2018-04-15T08:54:11.916Z,12.80
2018-04-15T08:56:41.053Z,12.50
2018-04-15T08:59:08.791Z,12.10
2018-04-15T09:01:37.913Z,12.80
2018-04-15T09:04:05.651Z,12.00
2018-04-15T09:06:35.181Z,12.50
2018-04-15T09:09:03.814Z,12.60
2018-04-15T09:11:41.792Z,12.40
2018-04-15T09:14:09.545Z,12.70
2018-04-15T09:16:38.346Z,12.70
2018-04-15T09:19:06.032Z,12.20
2018-04-15T09:24:03.683Z,12.70
2018-04-15T09:26:31.537Z,12.80
2018-04-15T09:29:00.048Z,12.70
2018-04-15T09:31:33.059Z,12.80
2018-04-15T09:34:01.915Z,12.60
2018-04-15T09:36:30.347Z,12.70
2018-04-15T09:38:58.761Z,12.80
2018-04-15T09:41:27.916Z,12.50
2018-04-15T09:46:35.488Z,13.00
2018-04-15T09:49:04.045Z,12.70
2018-04-15T09:51:33.765Z,12.80
2018-04-15T09:54:01.499Z,12.70
2018-04-15T09:56:30.300Z,12.30
2018-04-15T09:58:57.985Z,12.50
2018-04-15T10:01:34.283Z,12.20
2018-04-15T10:04:02.384Z,12.00
2018-04-15T10:06:34.862Z,12.40
2018-04-15T10:09:02.618Z,12.30
2018-04-15T10:11:31.296Z,12.00
2018-04-15T10:13:59.804Z,12.20
2018-04-15T10:16:27.923Z,12.20
2018-04-15T10:18:55.670Z,12.30
2018-04-15T10:21:25.440Z,12.50
2018-04-15T10:23:53.136Z,12.70
2018-04-15T10:26:24.433Z,12.10
2018-04-15T10:28:52.170Z,12.20
2018-04-15T10:31:22.406Z,12.30
2018-04-15T10:33:50.830Z,12.40
2018-04-15T10:36:19.354Z,12.40
2018-04-15T10:38:47.098Z,12.50
2018-04-15T10:41:15.631Z,12.60
2018-04-15T10:43:44.073Z,12.70
2018-04-15T10:46:19.196Z,12.60
2018-04-15T10:48:46.937Z,13.00
2018-04-15T10:51:16.653Z,13.40
2018-04-15T10:53:44.384Z,13.50
2018-04-15T10:56:13.956Z,13.40
2018-04-15T10:58:42.893Z,13.50
2018-04-15T11:01:11.060Z,13.80
2018-04-15T11:03:38.760Z,13.90
2018-04-15T11:06:13.771Z,14.10
2018-04-15T11:08:42.701Z,14.30
2018-04-15T11:11:10.445Z,14.60
2018-04-15T11:13:38.942Z,14.60
2018-04-15T11:16:06.705Z,14.70
2018-04-15T11:18:34.426Z,14.90
2018-04-15T11:21:10.392Z,15.20
2018-04-15T11:23:38.050Z,15.60
2018-04-15T11:28:34.868Z,16.00
2018-04-15T11:33:35.151Z,16.20
2018-04-15T11:36:03.915Z,16.10
2018-04-15T11:38:32.409Z,16.10
2018-04-15T11:41:05.833Z,16.00
2018-04-15T11:43:33.637Z,15.60
2018-04-15T11:46:04.011Z,16.20
2018-04-15T11:48:32.069Z,16.20
2018-04-15T11:50:59.833Z,16.00
2018-04-15T11:53:27.603Z,16.00
2018-04-15T11:55:58.815Z,16.30
2018-04-15T11:58:27.499Z,16.70
2018-04-15T12:00:55.984Z,17.00
2018-04-15T12:05:52.876Z,17.20
2018-04-15T12:08:20.590Z,18.00
2018-04-15T12:10:49.323Z,18.10
2018-04-15T12:13:17.078Z,18.20
2018-04-15T12:15:44.848Z,17.80
2018-04-15T12:18:12.955Z,18.40
2018-04-15T12:23:17.689Z,18.80
2018-04-15T12:25:48.968Z,19.30
2018-04-15T12:28:16.690Z,19.70
2018-04-15T12:30:45.424Z,20.50
2018-04-15T12:33:13.103Z,19.90
2018-04-15T12:35:41.249Z,19.90
2018-04-15T12:38:08.976Z,19.80
2018-04-15T12:43:08.539Z,19.80
2018-04-15T12:45:39.391Z,19.70
2018-04-15T12:48:07.865Z,19.90
2018-04-15T12:50:37.646Z,19.90
2018-04-15T12:53:05.424Z,20.50
2018-04-15T12:55:39.768Z,20.80
2018-04-15T12:58:07.837Z,20.40
2018-04-15T13:00:38.485Z,20.20
2018-04-15T13:03:06.197Z,19.10
2018-04-15T13:05:38.006Z,20.10
2018-04-15T13:08:05.746Z,19.80
2018-04-15T13:10:36.421Z,19.60
2018-04-15T13:13:04.926Z,19.30
2018-04-15T13:15:40.202Z,19.10
2018-04-15T13:20:39.986Z,18.60
2018-04-15T13:23:07.685Z,18.60
2018-04-15T13:25:39.916Z,18.40
2018-04-15T13:28:07.654Z,18.50
2018-04-15T13:30:41.665Z,18.60
2018-04-15T13:33:10.950Z,19.00
2018-04-15T13:35:42.196Z,19.00
2018-04-15T13:38:10.351Z,18.90
2018-04-15T13:40:44.229Z,18.50
2018-04-15T13:43:12.377Z,18.30
2018-04-15T13:45:44.070Z,17.90
2018-04-15T13:48:11.888Z,18.00
2018-04-15T13:50:44.007Z,18.00
2018-04-15T13:53:11.724Z,17.90
2018-04-15T13:55:40.481Z,17.80
2018-04-15T13:58:09.743Z,17.60
2018-04-15T14:00:37.405Z,18.10
2018-04-15T14:03:05.143Z,17.70
2018-04-15T14:05:34.819Z,17.40
2018-04-15T14:08:02.991Z,17.20
2018-04-15T14:10:37.871Z,17.20
2018-04-15T14:13:05.671Z,17.10
2018-04-15T14:15:39.688Z,17.00
2018-04-15T14:18:08.337Z,17.20
2018-04-15T14:20:37.068Z,17.00
2018-04-15T14:23:05.554Z,17.80
2018-04-15T14:25:33.314Z,18.30
2018-04-15T14:28:01.387Z,19.00
2018-04-15T14:33:11.437Z,20.80
2018-04-15T14:38:09.105Z,21.60
2018-04-15T14:40:36.822Z,21.90
2018-04-15T14:43:05.317Z,21.60
2018-04-15T14:45:36.215Z,21.70
2018-04-15T14:48:03.928Z,21.60
2018-04-15T14:50:33.039Z,21.70
2018-04-15T14:53:00.814Z,20.40
2018-04-15T14:55:29.753Z,19.80
2018-04-15T14:57:57.900Z,19.80
2018-04-15T15:03:24.517Z,20.60
2018-04-15T15:05:52.279Z,21.40
2018-04-15T15:08:32.077Z,21.10
2018-04-15T15:10:59.842Z,21.20
2018-04-15T15:13:27.582Z,21.00
2018-04-15T15:15:56.525Z,21.00
2018-04-15T15:18:29.264Z,21.80
2018-04-15T15:20:58.170Z,22.00
2018-04-15T15:28:34.937Z,23.20
2018-04-15T15:31:03.523Z,23.30
2018-04-15T15:33:33.296Z,23.20
2018-04-15T15:36:02.532Z,22.10
2018-04-15T15:43:31.485Z,21.70
2018-04-15T15:45:59.591Z,22.50
2018-04-15T15:48:31.595Z,22.80
2018-04-15T15:51:00.473Z,23.70
2018-04-15T15:53:29.248Z,23.00
2018-04-15T15:55:58.496Z,23.40
2018-04-15T15:58:29.079Z,23.30
2018-04-15T16:00:56.789Z,23.80
2018-04-15T16:03:26.500Z,23.50
2018-04-15T16:08:24.497Z,23.50
2018-04-15T16:10:52.218Z,23.50
2018-04-15T16:13:24.154Z,22.90
2018-04-15T16:15:51.817Z,22.70
2018-04-15T16:18:19.940Z,22.10
2018-04-15T16:20:47.731Z,21.70
2018-04-15T16:23:16.604Z,21.50
2018-04-15T16:25:44.343Z,21.40
2018-04-15T16:28:15.630Z,21.00
2018-04-15T16:30:43.858Z,20.50
2018-04-15T16:33:15.740Z,20.20
2018-04-15T16:35:43.498Z,20.00
2018-04-15T16:38:25.403Z,19.50
2018-04-15T16:40:53.087Z,19.00
2018-04-15T16:43:25.375Z,19.10
2018-04-15T16:45:53.057Z,19.10
2018-04-15T16:48:22.234Z,18.80
2018-04-15T16:50:51.133Z,18.60
2018-04-15T16:53:26.912Z,18.40
2018-04-15T16:55:54.696Z,18.00
2018-04-15T16:58:30.500Z,18.10
2018-04-15T17:00:58.232Z,18.00
2018-04-15T17:03:25.988Z,17.40
2018-04-15T17:05:54.150Z,17.50
2018-04-15T17:08:21.899Z,17.70
2018-04-15T17:13:18.707Z,17.20
2018-04-15T17:15:46.588Z,17.00
2018-04-15T17:26:38.327Z,16.30
2018-04-15T17:29:20.915Z,16.40
2018-04-15T17:31:49.077Z,15.80
2018-04-15T17:34:18.773Z,15.80
2018-04-15T17:36:47.389Z,15.90
2018-04-15T17:39:16.886Z,15.70
2018-04-15T17:41:45.390Z,15.60
2018-04-15T17:44:17.764Z,15.60
2018-04-15T17:46:45.512Z,15.00
2018-04-15T17:49:17.948Z,15.40
2018-04-15T17:51:45.657Z,15.20
2018-04-15T17:54:15.129Z,15.20
2018-04-15T17:56:43.979Z,15.10
2018-04-15T17:59:11.724Z,15.00
2018-04-15T18:01:39.827Z,15.10
2018-04-15T18:04:13.735Z,15.00
2018-04-15T18:06:41.830Z,14.90
2018-04-15T18:09:09.557Z,14.80
2018-04-15T18:11:38.803Z,14.70
2018-04-15T18:14:10.290Z,14.60
2018-04-15T18:16:38.060Z,14.20
2018-04-15T18:19:07.053Z,14.40
2018-04-15T18:21:35.930Z,14.30
2018-04-15T18:24:03.599Z,13.90
2018-04-15T18:26:31.315Z,14.40
2018-04-15T18:29:00.049Z,14.00
2018-04-15T18:31:27.764Z,13.90
2018-04-15T18:34:01.280Z,13.70
2018-04-15T18:36:29.785Z,13.60
2018-04-15T18:38:58.560Z,13.50
2018-04-15T18:41:26.435Z,13.50
2018-04-15T18:43:54.124Z,13.30
2018-04-15T18:46:22.244Z,13.20
2018-04-15T18:49:06.744Z,13.20
2018-04-15T18:51:34.585Z,13.10
2018-04-15T18:54:06.915Z,13.00
2018-04-15T18:56:34.657Z,13.30
2018-04-15T18:59:07.306Z,12.90
2018-04-15T19:01:35.372Z,12.80
2018-04-15T19:04:03.158Z,12.70
2018-04-15T19:06:30.886Z,12.70
2018-04-15T19:09:00.392Z,12.60
2018-04-15T19:11:28.487Z,12.50
2018-04-15T19:14:00.878Z,12.50
2018-04-15T19:16:29.739Z,12.40
2018-04-15T19:18:57.545Z,12.60
2018-04-15T19:21:25.283Z,12.30
2018-04-15T19:23:54.205Z,12.30
2018-04-15T19:26:21.959Z,12.60
2018-04-15T19:28:50.466Z,12.20
2018-04-15T19:31:26.679Z,12.00
2018-04-15T19:33:54.864Z,12.10
2018-04-15T19:36:27.321Z,12.00
2018-04-15T19:38:55.135Z,12.30
2018-04-15T19:41:27.877Z,12.10
2018-04-15T19:43:55.745Z,11.80
2018-04-15T19:46:39.005Z,11.90
2018-04-15T19:49:07.262Z,12.00
2018-04-15T19:51:36.949Z,11.70
2018-04-15T19:54:04.681Z,12.10
2018-04-15T19:56:43.969Z,11.70
2018-04-15T19:59:11.631Z,11.70
2018-04-15T20:01:42.444Z,11.60
2018-04-15T20:04:10.236Z,11.40
2018-04-15T20:06:43.164Z,11.40
2018-04-15T20:09:11.278Z,11.40
2018-04-15T20:11:42.390Z,11.30
2018-04-15T20:14:10.093Z,11.30
2018-04-15T20:16:38.655Z,11.20
2018-04-15T20:19:07.185Z,11.10
2018-04-15T20:21:48.920Z,11.20
2018-04-15T20:24:17.055Z,10.90
2018-04-15T20:26:46.672Z,10.90
2018-04-15T20:29:15.350Z,11.10
2018-04-15T20:31:44.759Z,11.30
2018-04-15T20:34:12.846Z,11.00
2018-04-15T20:36:43.435Z,10.90
2018-04-15T20:39:11.520Z,10.90
2018-04-15T20:41:59.811Z,10.90
2018-04-15T20:44:28.616Z,10.80
2018-04-15T20:46:58.432Z,10.90
2018-04-15T20:49:26.158Z,10.80
2018-04-15T20:51:57.720Z,10.80
2018-04-15T20:54:25.532Z,11.10
2018-04-15T20:56:54.979Z,10.80
2018-04-15T20:59:23.102Z,10.80
2018-04-15T21:02:01.926Z,10.80
2018-04-15T21:04:29.658Z,10.60
2018-04-15T21:07:01.342Z,10.50
2018-04-15T21:09:29.489Z,10.60
2018-04-15T21:11:57.195Z,10.50
2018-04-15T21:14:25.717Z,10.60
2018-04-15T21:17:10.862Z,10.60
2018-04-15T21:19:38.593Z,10.50
2018-04-15T21:22:07.887Z,10.40
2018-04-15T21:24:35.595Z,10.00
2018-04-15T21:27:03.740Z,10.40
2018-04-15T21:29:31.877Z,10.40
2018-04-15T21:31:59.654Z,10.20
2018-04-15T21:34:27.298Z,10.60
2018-04-15T21:36:55.382Z,10.40
2018-04-15T21:39:23.101Z,10.20
2018-04-15T21:41:51.264Z,10.30
2018-04-15T21:44:19.433Z,10.30
2018-04-15T21:46:47.120Z,10.60
2018-04-15T21:49:15.566Z,10.30
2018-04-15T21:52:06.703Z,10.20
2018-04-15T21:54:35.217Z,10.20
2018-04-15T21:57:11.921Z,10.20
2018-04-15T21:59:40.037Z,10.20
2018-04-15T22:02:09.751Z,10.60
2018-04-15T22:07:12.377Z,10.40
2018-04-15T22:09:40.455Z,10.50
2018-04-15T22:12:14.445Z,10.30
2018-04-15T22:14:42.650Z,10.20
2018-04-15T22:17:12.384Z,10.60
2018-04-15T22:19:40.876Z,10.30
2018-04-15T22:22:14.885Z,10.00
2018-04-15T22:24:43.872Z,10.30
2018-04-15T22:27:16.809Z,10.20
2018-04-15T22:29:44.461Z,10.20
2018-04-15T22:32:16.312Z,10.30
2018-04-15T22:34:44.013Z,10.00
2018-04-15T22:37:13.308Z,10.20
2018-04-15T22:39:41.384Z,10.10
2018-04-15T22:45:10.227Z,10.10
2018-04-15T22:47:44.384Z,10.10
2018-04-15T22:50:18.035Z,10.20
2018-04-15T22:52:53.663Z,10.20
2018-04-15T22:55:23.093Z,10.10
2018-04-15T22:57:50.782Z,9.90
2018-04-15T23:00:22.760Z,10.20
2018-04-15T23:02:50.485Z,10.30
2018-04-15T23:05:21.120Z,10.10
2018-04-15T23:07:49.581Z,10.10
2018-04-15T23:10:22.493Z,10.20
2018-04-15T23:12:50.981Z,10.10
2018-04-15T23:15:19.710Z,10.10
2018-04-15T23:17:47.470Z,10.00
2018-04-15T23:20:17.615Z,10.00
2018-04-15T23:22:45.750Z,10.00
2018-04-15T23:25:20.179Z,9.90
2018-04-15T23:27:48.392Z,9.90
2018-04-15T23:30:29.497Z,9.90
2018-04-15T23:32:57.619Z,9.90
2018-04-15T23:35:30.362Z,10.20
2018-04-15T23:37:58.906Z,9.90
2018-04-15T23:40:31.785Z,9.80
2018-04-15T23:43:00.376Z,9.90
2018-04-15T23:45:36.493Z,9.90
2018-04-15T23:48:04.211Z,10.00
2018-04-15T23:50:32.974Z,9.90
2018-04-15T23:53:00.637Z,9.80
2018-04-15T23:55:28.333Z,10.00
2018-04-15T23:57:56.138Z,9.60
